sensor_id;sensor_type;location;lat;lon;timestamp;P1;durP1;ratioP1;P2;durP2;ratioP2
59169;SDS011;52474;52.236;5.114;2022-10-15T00:00:52;52.08;;;22.58;;
59169;SDS011;52474;52.236;5.114;2022-10-15T00:03:18;52.75;;;22.73;;
59169;SDS011;52474;52.236;5.114;2022-10-15T00:05:44;50.00;;;21.05;;
59169;SDS011;52474;52.236;5.114;2022-10-15T00:08:10;57.17;;;24.10;;
59169;SDS011;52474;52.236;5.114;2022-10-15T00:10:37;57.03;;;24.55;;
59169;SDS011;52474;52.236;5.114;2022-10-15T00:13:03;54.30;;;24.75;;
59169;SDS011;52474;52.236;5.114;2022-10-15T00:15:29;60.00;;;26.10;;
59169;SDS011;52474;52.236;5.114;2022-10-15T00:17:55;63.88;;;26.00;;
59169;SDS011;52474;52.236;5.114;2022-10-15T00:20:20;71.50;;;28.42;;
59169;SDS011;52474;52.236;5.114;2022-10-15T00:22:46;74.18;;;29.42;;
59169;SDS011;52474;52.236;5.114;2022-10-15T00:25:12;70.97;;;29.98;;
59169;SDS011;52474;52.236;5.114;2022-10-15T00:27:38;76.95;;;30.40;;
59169;SDS011;52474;52.236;5.114;2022-10-15T00:30:04;71.50;;;29.45;;
59169;SDS011;52474;52.236;5.114;2022-10-15T00:32:31;75.10;;;30.25;;
59169;SDS011;52474;52.236;5.114;2022-10-15T00:34:56;71.95;;;30.58;;
59169;SDS011;52474;52.236;5.114;2022-10-15T00:37:22;81.32;;;31.23;;
59169;SDS011;52474;52.236;5.114;2022-10-15T00:39:49;75.82;;;29.52;;
59169;SDS011;52474;52.236;5.114;2022-10-15T00:42:14;73.45;;;30.63;;
59169;SDS011;52474;52.236;5.114;2022-10-15T00:44:59;75.57;;;29.85;;
59169;SDS011;52474;52.236;5.114;2022-10-15T00:50:34;70.30;;;28.38;;
59169;SDS011;52474;52.236;5.114;2022-10-15T00:52:45;72.35;;;29.13;;
59169;SDS011;52474;52.236;5.114;2022-10-15T00:55:31;74.32;;;29.15;;
59169;SDS011;52474;52.236;5.114;2022-10-15T00:58:05;75.05;;;30.48;;
59169;SDS011;52474;52.236;5.114;2022-10-15T01:00:35;75.22;;;30.25;;
59169;SDS011;52474;52.236;5.114;2022-10-15T01:03:01;70.65;;;29.48;;
59169;SDS011;52474;52.236;5.114;2022-10-15T01:05:27;77.32;;;32.22;;
59169;SDS011;52474;52.236;5.114;2022-10-15T01:07:54;78.90;;;35.00;;
59169;SDS011;52474;52.236;5.114;2022-10-15T01:10:20;79.63;;;33.65;;
59169;SDS011;52474;52.236;5.114;2022-10-15T01:15:43;86.53;;;34.75;;
59169;SDS011;52474;52.236;5.114;2022-10-15T01:18:23;89.43;;;37.72;;
59169;SDS011;52474;52.236;5.114;2022-10-15T01:20:59;91.72;;;35.72;;
59169;SDS011;52474;52.236;5.114;2022-10-15T01:32:29;103.68;;;36.88;;
59169;SDS011;52474;52.236;5.114;2022-10-15T01:35:20;108.25;;;40.25;;
59169;SDS011;52474;52.236;5.114;2022-10-15T01:40:31;117.93;;;42.20;;
59169;SDS011;52474;52.236;5.114;2022-10-15T01:43:03;113.95;;;39.67;;
59169;SDS011;52474;52.236;5.114;2022-10-15T01:45:47;111.63;;;40.58;;
59169;SDS011;52474;52.236;5.114;2022-10-15T01:48:33;106.20;;;38.67;;
59169;SDS011;52474;52.236;5.114;2022-10-15T01:51:03;118.15;;;42.65;;
59169;SDS011;52474;52.236;5.114;2022-10-15T01:53:32;117.70;;;41.63;;
59169;SDS011;52474;52.236;5.114;2022-10-15T01:56:00;110.60;;;41.17;;
59169;SDS011;52474;52.236;5.114;2022-10-15T01:58:30;111.70;;;41.05;;
59169;SDS011;52474;52.236;5.114;2022-10-15T02:00:58;111.53;;;41.35;;
59169;SDS011;52474;52.236;5.114;2022-10-15T02:03:25;110.43;;;41.80;;
59169;SDS011;52474;52.236;5.114;2022-10-15T02:11:17;97.55;;;36.63;;
59169;SDS011;52474;52.236;5.114;2022-10-15T02:16:23;89.20;;;35.83;;
59169;SDS011;52474;52.236;5.114;2022-10-15T02:24:15;101.63;;;38.45;;
59169;SDS011;52474;52.236;5.114;2022-10-15T02:26:45;115.30;;;37.58;;
59169;SDS011;52474;52.236;5.114;2022-10-15T02:29:15;109.22;;;38.42;;
59169;SDS011;52474;52.236;5.114;2022-10-15T02:31:46;106.35;;;38.22;;
59169;SDS011;52474;52.236;5.114;2022-10-15T02:34:14;100.00;;;37.85;;
59169;SDS011;52474;52.236;5.114;2022-10-15T02:39:10;120.32;;;39.95;;
59169;SDS011;52474;52.236;5.114;2022-10-15T02:41:38;115.82;;;39.05;;
59169;SDS011;52474;52.236;5.114;2022-10-15T02:44:07;110.63;;;37.80;;
59169;SDS011;52474;52.236;5.114;2022-10-15T02:46:33;127.10;;;40.65;;
59169;SDS011;52474;52.236;5.114;2022-10-15T02:48:59;119.03;;;41.78;;
59169;SDS011;52474;52.236;5.114;2022-10-15T02:51:25;117.78;;;40.58;;
59169;SDS011;52474;52.236;5.114;2022-10-15T02:53:51;115.00;;;39.22;;
59169;SDS011;52474;52.236;5.114;2022-10-15T02:56:17;126.03;;;38.47;;
59169;SDS011;52474;52.236;5.114;2022-10-15T02:58:43;114.93;;;40.38;;
59169;SDS011;52474;52.236;5.114;2022-10-15T03:01:09;106.75;;;38.05;;
59169;SDS011;52474;52.236;5.114;2022-10-15T03:03:35;108.28;;;39.97;;
59169;SDS011;52474;52.236;5.114;2022-10-15T03:06:01;111.50;;;39.40;;
59169;SDS011;52474;52.236;5.114;2022-10-15T03:08:27;113.18;;;38.03;;
59169;SDS011;52474;52.236;5.114;2022-10-15T03:10:54;106.78;;;36.80;;
59169;SDS011;52474;52.236;5.114;2022-10-15T03:13:20;109.75;;;38.10;;
59169;SDS011;52474;52.236;5.114;2022-10-15T03:15:50;101.00;;;36.92;;
59169;SDS011;52474;52.236;5.114;2022-10-15T03:18:15;104.32;;;36.85;;
59169;SDS011;52474;52.236;5.114;2022-10-15T03:20:42;99.47;;;35.17;;
59169;SDS011;52474;52.236;5.114;2022-10-15T03:23:07;100.07;;;35.92;;
59169;SDS011;52474;52.236;5.114;2022-10-15T03:25:33;102.30;;;36.45;;
59169;SDS011;52474;52.236;5.114;2022-10-15T03:28:02;93.55;;;35.08;;
59169;SDS011;52474;52.236;5.114;2022-10-15T03:30:35;94.13;;;34.63;;
59169;SDS011;52474;52.236;5.114;2022-10-15T03:33:01;96.82;;;36.20;;
59169;SDS011;52474;52.236;5.114;2022-10-15T03:35:28;104.40;;;34.45;;
59169;SDS011;52474;52.236;5.114;2022-10-15T03:37:54;103.43;;;35.42;;
59169;SDS011;52474;52.236;5.114;2022-10-15T03:40:21;95.28;;;37.25;;
59169;SDS011;52474;52.236;5.114;2022-10-15T03:42:51;115.38;;;36.13;;
59169;SDS011;52474;52.236;5.114;2022-10-15T03:45:22;110.93;;;37.20;;
59169;SDS011;52474;52.236;5.114;2022-10-15T03:47:56;103.15;;;37.00;;
59169;SDS011;52474;52.236;5.114;2022-10-15T03:50:25;117.75;;;37.28;;
59169;SDS011;52474;52.236;5.114;2022-10-15T03:52:51;120.88;;;39.42;;
59169;SDS011;52474;52.236;5.114;2022-10-15T03:55:16;135.57;;;40.85;;
59169;SDS011;52474;52.236;5.114;2022-10-15T03:57:44;142.30;;;40.33;;
59169;SDS011;52474;52.236;5.114;2022-10-15T04:00:10;122.13;;;38.80;;
59169;SDS011;52474;52.236;5.114;2022-10-15T04:02:40;116.88;;;39.08;;
59169;SDS011;52474;52.236;5.114;2022-10-15T04:05:16;124.03;;;40.00;;
59169;SDS011;52474;52.236;5.114;2022-10-15T04:07:48;125.93;;;39.83;;
59169;SDS011;52474;52.236;5.114;2022-10-15T04:12:43;130.93;;;40.88;;
59169;SDS011;52474;52.236;5.114;2022-10-15T04:15:13;128.40;;;38.85;;
59169;SDS011;52474;52.236;5.114;2022-10-15T04:17:46;151.05;;;40.95;;
59169;SDS011;52474;52.236;5.114;2022-10-15T04:20:12;135.75;;;40.78;;
59169;SDS011;52474;52.236;5.114;2022-10-15T04:22:41;124.68;;;38.55;;
59169;SDS011;52474;52.236;5.114;2022-10-15T04:25:07;142.00;;;39.53;;
59169;SDS011;52474;52.236;5.114;2022-10-15T04:27:33;127.78;;;38.92;;
59169;SDS011;52474;52.236;5.114;2022-10-15T04:30:07;115.38;;;37.15;;
59169;SDS011;52474;52.236;5.114;2022-10-15T04:32:36;122.40;;;38.03;;
59169;SDS011;52474;52.236;5.114;2022-10-15T04:35:01;123.93;;;39.55;;
59169;SDS011;52474;52.236;5.114;2022-10-15T04:38:03;125.35;;;40.00;;
59169;SDS011;52474;52.236;5.114;2022-10-15T04:40:48;141.35;;;43.05;;
59169;SDS011;52474;52.236;5.114;2022-10-15T04:43:14;147.43;;;43.53;;
59169;SDS011;52474;52.236;5.114;2022-10-15T04:45:40;136.50;;;44.83;;
59169;SDS011;52474;52.236;5.114;2022-10-15T04:48:06;140.70;;;44.17;;
59169;SDS011;52474;52.236;5.114;2022-10-15T04:50:33;147.18;;;44.58;;
59169;SDS011;52474;52.236;5.114;2022-10-15T04:53:14;150.15;;;49.30;;
59169;SDS011;52474;52.236;5.114;2022-10-15T04:55:43;159.10;;;48.10;;
59169;SDS011;52474;52.236;5.114;2022-10-15T04:58:10;155.30;;;49.38;;
59169;SDS011;52474;52.236;5.114;2022-10-15T05:00:37;175.82;;;49.65;;
59169;SDS011;52474;52.236;5.114;2022-10-15T05:03:29;165.63;;;51.88;;
59169;SDS011;52474;52.236;5.114;2022-10-15T05:06:03;144.80;;;47.65;;
59169;SDS011;52474;52.236;5.114;2022-10-15T05:08:32;149.82;;;49.25;;
59169;SDS011;52474;52.236;5.114;2022-10-15T05:11:09;157.75;;;49.67;;
59169;SDS011;52474;52.236;5.114;2022-10-15T05:13:37;140.30;;;47.27;;
59169;SDS011;52474;52.236;5.114;2022-10-15T05:16:07;140.65;;;48.65;;
59169;SDS011;52474;52.236;5.114;2022-10-15T05:18:38;136.73;;;48.92;;
59169;SDS011;52474;52.236;5.114;2022-10-15T05:21:05;136.93;;;49.63;;
59169;SDS011;52474;52.236;5.114;2022-10-15T05:23:32;147.15;;;50.63;;
59169;SDS011;52474;52.236;5.114;2022-10-15T05:26:13;148.13;;;49.85;;
59169;SDS011;52474;52.236;5.114;2022-10-15T05:28:40;129.43;;;46.85;;
59169;SDS011;52474;52.236;5.114;2022-10-15T05:31:07;134.30;;;47.95;;
59169;SDS011;52474;52.236;5.114;2022-10-15T05:33:35;141.18;;;47.42;;
59169;SDS011;52474;52.236;5.114;2022-10-15T05:36:21;132.95;;;48.55;;
59169;SDS011;52474;52.236;5.114;2022-10-15T05:38:56;128.60;;;43.75;;
59169;SDS011;52474;52.236;5.114;2022-10-15T05:41:25;117.80;;;45.25;;
59169;SDS011;52474;52.236;5.114;2022-10-15T05:43:53;116.47;;;45.97;;
59169;SDS011;52474;52.236;5.114;2022-10-15T05:46:24;115.05;;;46.08;;
59169;SDS011;52474;52.236;5.114;2022-10-15T05:48:51;117.28;;;46.22;;
59169;SDS011;52474;52.236;5.114;2022-10-15T05:51:18;131.15;;;44.42;;
59169;SDS011;52474;52.236;5.114;2022-10-15T05:53:45;121.55;;;43.33;;
59169;SDS011;52474;52.236;5.114;2022-10-15T05:56:12;122.10;;;45.20;;
59169;SDS011;52474;52.236;5.114;2022-10-15T05:58:38;123.97;;;43.70;;
59169;SDS011;52474;52.236;5.114;2022-10-15T06:01:06;121.72;;;42.53;;
59169;SDS011;52474;52.236;5.114;2022-10-15T06:03:36;130.48;;;43.92;;
59169;SDS011;52474;52.236;5.114;2022-10-15T06:06:03;125.03;;;43.10;;
59169;SDS011;52474;52.236;5.114;2022-10-15T06:08:34;133.82;;;42.83;;
59169;SDS011;52474;52.236;5.114;2022-10-15T06:11:02;129.13;;;40.95;;
59169;SDS011;52474;52.236;5.114;2022-10-15T06:13:29;128.98;;;41.20;;
59169;SDS011;52474;52.236;5.114;2022-10-15T06:15:55;129.57;;;40.72;;
59169;SDS011;52474;52.236;5.114;2022-10-15T06:18:20;132.32;;;40.80;;
59169;SDS011;52474;52.236;5.114;2022-10-15T06:20:50;150.15;;;41.47;;
59169;SDS011;52474;52.236;5.114;2022-10-15T06:23:17;128.45;;;39.08;;
59169;SDS011;52474;52.236;5.114;2022-10-15T06:25:43;140.05;;;40.30;;
59169;SDS011;52474;52.236;5.114;2022-10-15T06:28:09;141.30;;;40.88;;
59169;SDS011;52474;52.236;5.114;2022-10-15T06:30:42;145.05;;;39.78;;
59169;SDS011;52474;52.236;5.114;2022-10-15T06:33:09;142.25;;;42.53;;
59169;SDS011;52474;52.236;5.114;2022-10-15T06:35:35;146.57;;;40.72;;
59169;SDS011;52474;52.236;5.114;2022-10-15T06:38:01;155.23;;;39.38;;
59169;SDS011;52474;52.236;5.114;2022-10-15T06:40:28;138.82;;;38.42;;
59169;SDS011;52474;52.236;5.114;2022-10-15T06:42:54;162.20;;;42.38;;
59169;SDS011;52474;52.236;5.114;2022-10-15T06:45:20;174.32;;;39.45;;
59169;SDS011;52474;52.236;5.114;2022-10-15T06:47:46;165.70;;;40.55;;
59169;SDS011;52474;52.236;5.114;2022-10-15T06:50:11;189.23;;;43.83;;
59169;SDS011;52474;52.236;5.114;2022-10-15T06:52:37;172.38;;;39.53;;
59169;SDS011;52474;52.236;5.114;2022-10-15T06:55:03;171.40;;;40.05;;
59169;SDS011;52474;52.236;5.114;2022-10-15T06:57:29;152.70;;;38.10;;
59169;SDS011;52474;52.236;5.114;2022-10-15T06:59:55;171.60;;;40.55;;
59169;SDS011;52474;52.236;5.114;2022-10-15T07:02:21;142.73;;;36.70;;
59169;SDS011;52474;52.236;5.114;2022-10-15T07:04:49;146.32;;;35.65;;
59169;SDS011;52474;52.236;5.114;2022-10-15T07:09:44;144.00;;;34.67;;
59169;SDS011;52474;52.236;5.114;2022-10-15T07:12:12;144.85;;;36.30;;
59169;SDS011;52474;52.236;5.114;2022-10-15T07:14:37;139.57;;;32.95;;
59169;SDS011;52474;52.236;5.114;2022-10-15T07:17:04;145.68;;;34.83;;
59169;SDS011;52474;52.236;5.114;2022-10-15T07:19:30;139.98;;;33.58;;
59169;SDS011;52474;52.236;5.114;2022-10-15T07:21:56;155.93;;;36.80;;
59169;SDS011;52474;52.236;5.114;2022-10-15T07:24:21;129.80;;;32.33;;
59169;SDS011;52474;52.236;5.114;2022-10-15T07:26:47;145.93;;;31.98;;
59169;SDS011;52474;52.236;5.114;2022-10-15T07:29:13;140.43;;;33.47;;
59169;SDS011;52474;52.236;5.114;2022-10-15T07:31:42;140.13;;;33.75;;
59169;SDS011;52474;52.236;5.114;2022-10-15T07:34:08;131.68;;;32.70;;
59169;SDS011;52474;52.236;5.114;2022-10-15T07:36:34;126.00;;;32.63;;
59169;SDS011;52474;52.236;5.114;2022-10-15T07:39:00;132.00;;;32.78;;
59169;SDS011;52474;52.236;5.114;2022-10-15T07:41:26;138.60;;;33.30;;
59169;SDS011;52474;52.236;5.114;2022-10-15T07:43:52;130.70;;;31.48;;
59169;SDS011;52474;52.236;5.114;2022-10-15T07:46:18;125.82;;;31.05;;
59169;SDS011;52474;52.236;5.114;2022-10-15T07:48:44;120.90;;;29.80;;
59169;SDS011;52474;52.236;5.114;2022-10-15T07:51:13;131.10;;;31.20;;
59169;SDS011;52474;52.236;5.114;2022-10-15T07:53:38;121.03;;;33.42;;
59169;SDS011;52474;52.236;5.114;2022-10-15T07:56:06;122.25;;;31.15;;
59169;SDS011;52474;52.236;5.114;2022-10-15T07:58:35;96.35;;;27.05;;
59169;SDS011;52474;52.236;5.114;2022-10-15T08:01:03;100.13;;;29.15;;
59169;SDS011;52474;52.236;5.114;2022-10-15T08:03:30;83.30;;;26.02;;
59169;SDS011;52474;52.236;5.114;2022-10-15T08:05:58;83.93;;;25.63;;
59169;SDS011;52474;52.236;5.114;2022-10-15T08:08:26;83.80;;;25.80;;
59169;SDS011;52474;52.236;5.114;2022-10-15T08:10:52;75.15;;;24.02;;
59169;SDS011;52474;52.236;5.114;2022-10-15T08:13:18;63.75;;;22.58;;
59169;SDS011;52474;52.236;5.114;2022-10-15T08:15:48;67.32;;;23.10;;
59169;SDS011;52474;52.236;5.114;2022-10-15T08:18:14;67.10;;;22.88;;
59169;SDS011;52474;52.236;5.114;2022-10-15T08:20:40;72.90;;;23.27;;
59169;SDS011;52474;52.236;5.114;2022-10-15T08:23:12;63.35;;;22.50;;
59169;SDS011;52474;52.236;5.114;2022-10-15T08:25:39;61.88;;;20.90;;
59169;SDS011;52474;52.236;5.114;2022-10-15T08:28:06;54.60;;;18.98;;
59169;SDS011;52474;52.236;5.114;2022-10-15T08:30:34;56.17;;;21.13;;
59169;SDS011;52474;52.236;5.114;2022-10-15T08:33:07;52.63;;;19.98;;
59169;SDS011;52474;52.236;5.114;2022-10-15T08:35:33;53.90;;;21.80;;
59169;SDS011;52474;52.236;5.114;2022-10-15T08:38:01;53.00;;;20.50;;
59169;SDS011;52474;52.236;5.114;2022-10-15T08:40:27;46.63;;;18.92;;
59169;SDS011;52474;52.236;5.114;2022-10-15T08:42:54;45.63;;;20.50;;
59169;SDS011;52474;52.236;5.114;2022-10-15T08:45:25;45.80;;;18.90;;
59169;SDS011;52474;52.236;5.114;2022-10-15T08:47:57;41.70;;;17.92;;
59169;SDS011;52474;52.236;5.114;2022-10-15T08:50:49;45.53;;;18.02;;
59169;SDS011;52474;52.236;5.114;2022-10-15T08:53:24;39.05;;;17.75;;
59169;SDS011;52474;52.236;5.114;2022-10-15T08:55:54;37.35;;;16.98;;
59169;SDS011;52474;52.236;5.114;2022-10-15T08:58:29;38.35;;;18.25;;
59169;SDS011;52474;52.236;5.114;2022-10-15T09:06:37;31.60;;;15.25;;
59169;SDS011;52474;52.236;5.114;2022-10-15T09:12:03;27.42;;;14.40;;
59169;SDS011;52474;52.236;5.114;2022-10-15T09:14:42;27.20;;;13.55;;
59169;SDS011;52474;52.236;5.114;2022-10-15T09:17:16;28.33;;;15.15;;
59169;SDS011;52474;52.236;5.114;2022-10-15T09:19:45;26.40;;;14.52;;
59169;SDS011;52474;52.236;5.114;2022-10-15T09:24:44;30.20;;;14.73;;
59169;SDS011;52474;52.236;5.114;2022-10-15T09:32:57;27.52;;;14.45;;
59169;SDS011;52474;52.236;5.114;2022-10-15T09:35:32;30.42;;;14.85;;
59169;SDS011;52474;52.236;5.114;2022-10-15T09:40:52;29.35;;;13.82;;
59169;SDS011;52474;52.236;5.114;2022-10-15T09:43:45;27.38;;;14.60;;
59169;SDS011;52474;52.236;5.114;2022-10-15T09:46:15;27.80;;;13.73;;
59169;SDS011;52474;52.236;5.114;2022-10-15T09:54:50;25.75;;;12.70;;
59169;SDS011;52474;52.236;5.114;2022-10-15T09:57:13;28.58;;;12.85;;
59169;SDS011;52474;52.236;5.114;2022-10-15T09:59:55;24.77;;;12.88;;
59169;SDS011;52474;52.236;5.114;2022-10-15T10:02:26;24.35;;;12.20;;
59169;SDS011;52474;52.236;5.114;2022-10-15T10:04:52;22.15;;;12.07;;
59169;SDS011;52474;52.236;5.114;2022-10-15T10:07:37;20.38;;;10.98;;
59169;SDS011;52474;52.236;5.114;2022-10-15T10:10:06;20.38;;;10.80;;
59169;SDS011;52474;52.236;5.114;2022-10-15T10:12:45;22.75;;;11.80;;
59169;SDS011;52474;52.236;5.114;2022-10-15T10:15:27;25.90;;;12.15;;
59169;SDS011;52474;52.236;5.114;2022-10-15T10:17:57;27.25;;;12.40;;
59169;SDS011;52474;52.236;5.114;2022-10-15T10:20:24;30.92;;;13.32;;
59169;SDS011;52474;52.236;5.114;2022-10-15T10:22:53;27.70;;;12.27;;
59169;SDS011;52474;52.236;5.114;2022-10-15T10:25:32;31.27;;;13.50;;
59169;SDS011;52474;52.236;5.114;2022-10-15T10:30:36;33.42;;;13.57;;
59169;SDS011;52474;52.236;5.114;2022-10-15T10:33:27;32.45;;;13.73;;
59169;SDS011;52474;52.236;5.114;2022-10-15T10:35:59;31.30;;;13.73;;
59169;SDS011;52474;52.236;5.114;2022-10-15T10:38:28;32.88;;;14.20;;
59169;SDS011;52474;52.236;5.114;2022-10-15T10:41:05;33.60;;;14.00;;
59169;SDS011;52474;52.236;5.114;2022-10-15T10:43:51;32.27;;;13.90;;
59169;SDS011;52474;52.236;5.114;2022-10-15T10:46:19;28.42;;;12.82;;
59169;SDS011;52474;52.236;5.114;2022-10-15T10:51:17;30.90;;;13.40;;
59169;SDS011;52474;52.236;5.114;2022-10-15T10:53:56;28.88;;;12.90;;
59169;SDS011;52474;52.236;5.114;2022-10-15T10:56:34;34.35;;;14.55;;
59169;SDS011;52474;52.236;5.114;2022-10-15T10:59:10;31.67;;;13.80;;
59169;SDS011;52474;52.236;5.114;2022-10-15T11:01:41;33.22;;;13.05;;
59169;SDS011;52474;52.236;5.114;2022-10-15T11:04:29;34.10;;;13.38;;
59169;SDS011;52474;52.236;5.114;2022-10-15T11:07:00;33.65;;;13.05;;
59169;SDS011;52474;52.236;5.114;2022-10-15T11:14:57;29.45;;;12.85;;
59169;SDS011;52474;52.236;5.114;2022-10-15T11:26:00;31.38;;;12.50;;
59169;SDS011;52474;52.236;5.114;2022-10-15T11:34:19;26.20;;;10.85;;
59169;SDS011;52474;52.236;5.114;2022-10-15T11:42:54;23.33;;;11.05;;
59169;SDS011;52474;52.236;5.114;2022-10-15T11:57:14;17.38;;;9.20;;
59169;SDS011;52474;52.236;5.114;2022-10-15T11:59:51;22.88;;;10.00;;
59169;SDS011;52474;52.236;5.114;2022-10-15T12:02:28;20.15;;;9.35;;
59169;SDS011;52474;52.236;5.114;2022-10-15T12:04:58;366.15;;;295.48;;
59169;SDS011;52474;52.236;5.114;2022-10-15T12:07:30;34.03;;;22.08;;
59169;SDS011;52474;52.236;5.114;2022-10-15T12:12:54;144.80;;;47.50;;
59169;SDS011;52474;52.236;5.114;2022-10-15T12:15:41;50.70;;;17.15;;
59169;SDS011;52474;52.236;5.114;2022-10-15T12:18:26;52.83;;;16.85;;
59169;SDS011;52474;52.236;5.114;2022-10-15T12:20:55;48.38;;;17.23;;
59169;SDS011;52474;52.236;5.114;2022-10-15T12:23:24;60.55;;;21.60;;
59169;SDS011;52474;52.236;5.114;2022-10-15T12:25:49;27.25;;;12.90;;
59169;SDS011;52474;52.236;5.114;2022-10-15T12:28:25;35.17;;;17.38;;
59169;SDS011;52474;52.236;5.114;2022-10-15T12:30:58;33.70;;;16.85;;
59169;SDS011;52474;52.236;5.114;2022-10-15T12:33:33;17.80;;;9.75;;
59169;SDS011;52474;52.236;5.114;2022-10-15T12:39:00;22.63;;;11.13;;
59169;SDS011;52474;52.236;5.114;2022-10-15T12:41:37;18.25;;;8.77;;
59169;SDS011;52474;52.236;5.114;2022-10-15T12:44:14;17.95;;;8.93;;
59169;SDS011;52474;52.236;5.114;2022-10-15T12:46:48;17.85;;;9.50;;
59169;SDS011;52474;52.236;5.114;2022-10-15T12:54:36;19.17;;;9.13;;
59169;SDS011;52474;52.236;5.114;2022-10-15T13:00:26;17.48;;;10.13;;
59169;SDS011;52474;52.236;5.114;2022-10-15T13:02:52;17.50;;;10.27;;
59169;SDS011;52474;52.236;5.114;2022-10-15T13:05:31;15.85;;;9.38;;
59169;SDS011;52474;52.236;5.114;2022-10-15T13:07:59;15.80;;;9.88;;
59169;SDS011;52474;52.236;5.114;2022-10-15T13:10:36;15.10;;;9.63;;
59169;SDS011;52474;52.236;5.114;2022-10-15T13:13:06;14.40;;;9.23;;
59169;SDS011;52474;52.236;5.114;2022-10-15T13:15:39;16.13;;;9.73;;
59169;SDS011;52474;52.236;5.114;2022-10-15T13:18:06;13.88;;;8.93;;
59169;SDS011;52474;52.236;5.114;2022-10-15T13:20:42;15.10;;;8.98;;
59169;SDS011;52474;52.236;5.114;2022-10-15T13:23:15;14.45;;;9.40;;
59169;SDS011;52474;52.236;5.114;2022-10-15T13:25:42;16.33;;;9.55;;
59169;SDS011;52474;52.236;5.114;2022-10-15T13:30:58;12.77;;;8.77;;
59169;SDS011;52474;52.236;5.114;2022-10-15T13:33:26;12.70;;;8.70;;
59169;SDS011;52474;52.236;5.114;2022-10-15T13:35:54;12.23;;;8.60;;
59169;SDS011;52474;52.236;5.114;2022-10-15T13:38:30;11.98;;;8.07;;
59169;SDS011;52474;52.236;5.114;2022-10-15T13:41:03;9.27;;;7.18;;
59169;SDS011;52474;52.236;5.114;2022-10-15T13:43:29;8.95;;;6.53;;
59169;SDS011;52474;52.236;5.114;2022-10-15T13:45:55;8.68;;;6.75;;
59169;SDS011;52474;52.236;5.114;2022-10-15T13:48:24;9.57;;;6.22;;
59169;SDS011;52474;52.236;5.114;2022-10-15T13:50:52;7.68;;;5.93;;
59169;SDS011;52474;52.236;5.114;2022-10-15T13:53:30;8.40;;;6.68;;
59169;SDS011;52474;52.236;5.114;2022-10-15T13:56:03;6.80;;;5.63;;
59169;SDS011;52474;52.236;5.114;2022-10-15T13:58:42;5.28;;;4.78;;
59169;SDS011;52474;52.236;5.114;2022-10-15T14:04:12;5.18;;;4.32;;
59169;SDS011;52474;52.236;5.114;2022-10-15T14:06:41;6.38;;;3.63;;
59169;SDS011;52474;52.236;5.114;2022-10-15T14:09:21;4.25;;;2.88;;
59169;SDS011;52474;52.236;5.114;2022-10-15T14:11:52;2.28;;;2.08;;
59169;SDS011;52474;52.236;5.114;2022-10-15T14:14:32;3.03;;;1.90;;
59169;SDS011;52474;52.236;5.114;2022-10-15T14:17:01;1.52;;;1.42;;
59169;SDS011;52474;52.236;5.114;2022-10-15T14:19:30;1.92;;;1.10;;
59169;SDS011;52474;52.236;5.114;2022-10-15T14:21:58;4.25;;;1.00;;
59169;SDS011;52474;52.236;5.114;2022-10-15T14:24:35;5.18;;;1.20;;
59169;SDS011;52474;52.236;5.114;2022-10-15T14:27:06;0.85;;;0.80;;
59169;SDS011;52474;52.236;5.114;2022-10-15T14:29:41;1.20;;;0.88;;
59169;SDS011;52474;52.236;5.114;2022-10-15T14:32:25;2.38;;;0.80;;
59169;SDS011;52474;52.236;5.114;2022-10-15T14:34:52;0.82;;;0.77;;
59169;SDS011;52474;52.236;5.114;2022-10-15T14:37:26;2.17;;;1.00;;
59169;SDS011;52474;52.236;5.114;2022-10-15T14:47:40;3.65;;;0.57;;
59169;SDS011;52474;52.236;5.114;2022-10-15T14:50:10;1.63;;;0.65;;
59169;SDS011;52474;52.236;5.114;2022-10-15T14:52:36;3.47;;;0.90;;
59169;SDS011;52474;52.236;5.114;2022-10-15T14:55:15;3.05;;;0.93;;
59169;SDS011;52474;52.236;5.114;2022-10-15T14:57:49;1.85;;;0.68;;
59169;SDS011;52474;52.236;5.114;2022-10-15T15:00:21;4.60;;;0.77;;
59169;SDS011;52474;52.236;5.114;2022-10-15T15:03:01;2.88;;;0.80;;
59169;SDS011;52474;52.236;5.114;2022-10-15T15:05:29;3.08;;;0.80;;
59169;SDS011;52474;52.236;5.114;2022-10-15T15:07:55;4.47;;;0.80;;
59169;SDS011;52474;52.236;5.114;2022-10-15T15:10:22;2.38;;;0.55;;
59169;SDS011;52474;52.236;5.114;2022-10-15T15:12:52;1.83;;;0.80;;
59169;SDS011;52474;52.236;5.114;2022-10-15T15:15:21;3.33;;;0.90;;
59169;SDS011;52474;52.236;5.114;2022-10-15T15:17:48;2.38;;;0.82;;
59169;SDS011;52474;52.236;5.114;2022-10-15T15:20:14;3.17;;;1.10;;
59169;SDS011;52474;52.236;5.114;2022-10-15T15:22:45;2.08;;;0.82;;
59169;SDS011;52474;52.236;5.114;2022-10-15T15:27:55;3.33;;;0.65;;
59169;SDS011;52474;52.236;5.114;2022-10-15T15:30:23;2.20;;;0.70;;
59169;SDS011;52474;52.236;5.114;2022-10-15T15:32:50;2.28;;;0.88;;
59169;SDS011;52474;52.236;5.114;2022-10-15T15:37:49;6.28;;;0.73;;
59169;SDS011;52474;52.236;5.114;2022-10-15T15:40:15;3.95;;;1.00;;
59169;SDS011;52474;52.236;5.114;2022-10-15T15:42:41;3.20;;;0.70;;
59169;SDS011;52474;52.236;5.114;2022-10-15T15:45:41;1.75;;;0.85;;
59169;SDS011;52474;52.236;5.114;2022-10-15T15:48:00;5.05;;;1.00;;
59169;SDS011;52474;52.236;5.114;2022-10-15T15:50:27;4.32;;;0.88;;
59169;SDS011;52474;52.236;5.114;2022-10-15T15:52:53;3.72;;;1.00;;
59169;SDS011;52474;52.236;5.114;2022-10-15T15:55:19;4.00;;;0.75;;
59169;SDS011;52474;52.236;5.114;2022-10-15T15:57:45;3.00;;;0.80;;
59169;SDS011;52474;52.236;5.114;2022-10-15T16:00:11;5.05;;;0.90;;
59169;SDS011;52474;52.236;5.114;2022-10-15T16:02:38;1.92;;;1.00;;
59169;SDS011;52474;52.236;5.114;2022-10-15T16:05:05;3.13;;;0.80;;
59169;SDS011;52474;52.236;5.114;2022-10-15T16:07:31;1.35;;;0.63;;
59169;SDS011;52474;52.236;5.114;2022-10-15T16:09:56;2.92;;;0.90;;
59169;SDS011;52474;52.236;5.114;2022-10-15T16:12:22;4.28;;;0.85;;
59169;SDS011;52474;52.236;5.114;2022-10-15T16:14:48;4.38;;;1.00;;
59169;SDS011;52474;52.236;5.114;2022-10-15T16:17:14;2.15;;;0.80;;
59169;SDS011;52474;52.236;5.114;2022-10-15T16:19:40;5.30;;;1.00;;
59169;SDS011;52474;52.236;5.114;2022-10-15T16:22:06;3.55;;;1.08;;
59169;SDS011;52474;52.236;5.114;2022-10-15T16:24:31;4.10;;;0.93;;
59169;SDS011;52474;52.236;5.114;2022-10-15T16:26:57;2.13;;;0.80;;
59169;SDS011;52474;52.236;5.114;2022-10-15T16:29:23;5.20;;;0.68;;
59169;SDS011;52474;52.236;5.114;2022-10-15T16:31:49;1.63;;;0.80;;
59169;SDS011;52474;52.236;5.114;2022-10-15T16:34:15;1.35;;;0.82;;
59169;SDS011;52474;52.236;5.114;2022-10-15T16:36:40;4.63;;;1.25;;
59169;SDS011;52474;52.236;5.114;2022-10-15T16:39:06;4.57;;;0.80;;
59169;SDS011;52474;52.236;5.114;2022-10-15T16:41:32;4.10;;;1.00;;
59169;SDS011;52474;52.236;5.114;2022-10-15T16:43:58;3.30;;;0.90;;
59169;SDS011;52474;52.236;5.114;2022-10-15T16:46:24;4.60;;;0.88;;
59169;SDS011;52474;52.236;5.114;2022-10-15T16:48:53;1.42;;;0.60;;
59169;SDS011;52474;52.236;5.114;2022-10-15T16:51:20;2.67;;;1.00;;
59169;SDS011;52474;52.236;5.114;2022-10-15T16:53:48;2.97;;;0.90;;
59169;SDS011;52474;52.236;5.114;2022-10-15T16:58:42;3.47;;;0.80;;
59169;SDS011;52474;52.236;5.114;2022-10-15T17:01:12;3.72;;;0.85;;